INDIA METEOROLOGICAL DEPARTMENT, R.M.C. NEW DELHI
Dated:1 - 8 - 2014
METARS


Agartala   
VEAT 010130Z 12003KT 4000 BR FEW020 SCT100 BKN200 28/25 Q1002 NOSIG=
Ahmedabad  
VAAH 010010Z 09002KT 4000 BR FEW015 SCT020 FEW030TCU BKN080 27/27 Q0999 NOSIG=
Amritsar   
VIAR 010130Z 00000KT 1200 R34/1300N BR FEW040 29/29 Q1001=
Bangalore  
VOBL 010130Z 24010KT 6000 BKN006 SCT012 25/24 Q1012 NOSIG=
Bhubaneswar
VEBS 010130Z 19005KT 4000 HZ SCT020 BKN100 28/27 Q1001 NOSIG=
Bhuntar    
VIBR 010100Z 00000KT 4000 SCT002 BKN030 OVC080 22/21 Q1009=
Chennai    
VOMM 010140Z 23006KT 6000 SCT020 30/22 Q1005 NOSIG=
Coimbatore 
VOCB 010130Z 23005KT 4500 -DZ FEW010 SCT015 BKN080 23/22 Q1010 NOSIG=
Colombo    
VCBI 010010Z 22009KT 9999 FEW010 SCT015 FEW018CB OVC090 27/25 Q1009 NOSIG=
Delhi      
VIDP 010130Z 10007KT 3000 BR FEW035 SCT100 30/26 Q1002 NOSIG=
Gauhati    
VEGT 010130Z 00000KT 4000 HZ FEW020 SCT100 29/27 Q1002 NOSIG BEC5000 HZ=
Gaya       
VEGY 010100Z 00000KT 5000 BR BKN018 28/26 Q1000=
Goa        
VOGO 010130Z 29014KT 5000 VCSH FEW006 SCT012 FEW022TCU BKN080 25/24 Q1005 NOSIG =
Hyderabad  
VOHS 010110Z 25010KT 5000 HZ SCT010 SCT015 BKN100 22/17 Q1007 NOSIG=
Imphal     
VEIM 010100Z 20003KT 4000-RA FEW008 SCT018 BKN100 24/23 Q1007 BECMG5000BR =
Jaipur     
VIJP 010030Z 08008KT 3000 BR SCT030 SCT100 28/26 Q1002 NOSIG=
Kochi      
VOCI 010030Z 10004KT 4500 HZ SCT010 SCT015 OVC080 23/23 Q1010 TEMPO 3000 RA=
Kolkata    
VECC 010120Z 15004KT 2800 BR SCT015 29/28 Q1000 BECMG 3000 HZ=
Kozhikode  
VOCL 010130Z 25008KT 3000 -RA SCT004 SCT010 FEW025CB OVC080 24/23 Q1009 NOSIG=
Lucknow    
VILK 010130Z 08003KT 4000 HZ FEW020 SCT100 29/27 Q1000 NOSIG=
Madurai    
VOMD 010130Z 29007KT 6000 FEW020 SCT100 29/21 Q1008 =
Mumbai     
VABB 010040Z 23010KT 3000 BR FEW010 SCT017 FEW025TCU OVC090 27/26 Q1002 TEMPO 1500 SHRA=
Nagpur     
VANP 312340Z 20005KT 5000 HZ FEW010 SCT020 BKN100 24/23 Q1003 NOSIG=
Patna      
VEPT 010050Z 09007KT 2500 HZ FEW010 SCT018 BKN100 29/27 Q1000 NOSIG=
Ranchi     
VERC 010000Z 00000KT 3000 HZ SCT015 BKN100 24/24 Q1003 NOSIG=
Trichy     
VOTR 010110Z 28010KT 6000 SCT018 BKN100 28/21 Q1007 NOSIG=
Trivandrum 
VOTV 010110Z 09003KT 3000 HZ SCT012 FEW025CB BKN090 25/23 Q1009 NOSIG=
Udaipur    
VAUD 010100Z 00000KT 6000 BKN020 BKN080 26/25 Q1003=
Varanasi   
VIBN 010030Z 08003KT 5000 HZ SCT025 28/27 Q0999=
Vizag      
VOVZ 010100Z VRB01KT 5000 BR FEW012 SCT016 BKN090 29/26 Q1002 TEMPO 4000 -RA =
Male       
VRMM 010000Z 22009KT 9999 FEW018 SCT280 29/24 Q1010 NOSIG=
Kathmandu   
VNKT 010020Z 00000KT 8000 FEW015 SCT025 BKN100 22/20 Q1011 NOSIG=
Dhaka      
VGHS 010050Z 16005KT 4000 HZ SCT015 29/25 Q1001 NOSIG=
Colombo     
VCBI 010010Z 22009KT 9999 FEW010 SCT015 FEW018CB OVC090 27/25 Q1009 NOSIG=
Karachi     
OPKC 010025Z 24007KT 6000 FEW020 SCT100 30/25 Q0998 TEMPO DSTS/RA FEW025CB=
Lahore      
OPLA 010030Z 13004KT 4000 FU FEW040 SCT100 29/26 Q1001=
Leh        
VILH 010030Z 29010G20KT 6000 SCT070 20/XX Q1018 TEMPO 30015G25KT=
Thoise     
VITX 010030Z 31006KT 6000 FEW070 SCT150 19/01 Q1018 NOSIG=
Sri Nagar  
VISR 010030Z 12005KT 3500 BR FEW020 FEW025TCU BKN090 20/19 Q1012 TEMPO TS=
Jammu      
VIJU 010030Z VRB02KT 6000 TSRA SCT020 FEW025CB BKN090 28/25 Q1002 TEMPO TSRA=
Jodhpur    
VIJO 010030Z VRB02KT 6000 FEW030 SCT300 27/27 Q1000 NOSIG=
Bhuj-Rudra 
VABJ 010030Z VRB02KT 5000 BR FEW020 BKN090 27/27 Q0998 NOSIG=
Gorakhpur  
VEGK 010030Z 07004KT 6000 FEW030 BKN250 28/25 Q1000 NOSIG=
Allahabad  
VIAL 010030Z 08005KT 6000 SCT018 BKN090 28/27 Q1000 NOSIG=
Agra       
VIAG 010030Z 07004KT 6000 SCT090 SCT250 28/28 Q1001 NOSIG=
Siliguri   
VEBD 010030Z 02004KT 1500 TSRA BKN007 SCT015 FEW025CB BKN090 26/26 Q1003 NOSIG=
Gwalior    
VIGR 010030Z 04004KT 4000 BR SCT020 SCT090 28/27 Q1001 BECMG 3000=
Pune       
VAPO 010030Z 23003KT 5000 -RA SCT010 SCT015 BKN090 22/22 Q1006 NOSIG=
Chandigarh 
VICG 010030Z 16004KT 6000 FEW030 BKN090 28/28 Q1002 NOSIG=
Jamnagar   
VAJM 010030Z 24004KT 5000 BR FEW008 SCT015 BKN080 26/26 Q0997 TEMPO RA=